Time;durP1;ratioP1;P1;durP2;ratioP2;P2;SDS_P1;SDS_P2;PMS_P1;PMS_P2;Temp;Humidity;BMP_temperature;BMP_pressure;BME280_temperature;BME280_humidity;BME280_pressure;Samples;Min_cycle;Max_cycle;Signal;HPM_P1;HPM_P2
2022/02/19 00:02:11;;;;;;;1999.90;999.90;;;;;;;-151.59;100.00;55400.94;4999926;28;100575;-71
2022/02/19 00:04:38;;;;;;;1999.90;999.90;;;;;;;-151.59;100.00;55400.94;5013906;28;96868;-72
2022/02/19 00:07:07;;;;;;;1999.90;999.90;;;;;;;-151.59;100.00;55400.94;5019152;28;98871;-71
2022/02/19 00:09:35;;;;;;;1999.90;999.90;;;;;;;-151.59;100.00;55400.94;5033795;27;99626;-71
2022/02/19 00:12:04;;;;;;;1999.90;999.90;;;;;;;-151.59;100.00;55400.94;5015379;27;100391;-73
2022/02/19 00:14:32;;;;;;;1999.90;999.90;;;;;;;-151.59;100.00;55400.94;5019507;28;96903;-71
2022/02/19 00:17:03;;;;;;;1999.90;999.90;;;;;;;-151.59;100.00;55400.94;5017676;28;98315;-72
2022/02/19 00:19:31;;;;;;;1999.90;999.90;;;;;;;-151.59;100.00;55400.94;5016021;27;101708;-71
2022/02/19 00:21:59;;;;;;;1999.90;999.90;;;;;;;-151.59;100.00;55400.94;5018317;27;97950;-72
2022/02/19 00:24:28;;;;;;;1999.90;999.90;;;;;;;-151.59;100.00;55400.94;5019475;28;97072;-72
2022/02/19 00:26:56;;;;;;;1999.90;999.90;;;;;;;-151.59;100.00;55400.94;5017797;28;98093;-72
2022/02/19 00:29:24;;;;;;;1999.90;999.90;;;;;;;-151.59;100.00;55400.94;5016074;28;97803;-71
2022/02/19 00:31:52;;;;;;;1999.90;999.90;;;;;;;-151.59;100.00;55400.94;5017116;27;100209;-71
2022/02/19 00:34:21;;;;;;;1999.90;999.90;;;;;;;-151.59;100.00;55400.94;5017527;27;97920;-70
2022/02/19 00:36:49;;;;;;;1999.90;999.90;;;;;;;-151.59;100.00;55400.94;5018712;27;96831;-72
2022/02/19 00:39:16;;;;;;;1999.90;999.90;;;;;;;-151.59;100.00;55400.94;5018445;28;97067;-72
2022/02/19 00:41:46;;;;;;;1999.90;999.90;;;;;;;-151.59;100.00;55400.94;5018276;27;97557;-72
2022/02/19 00:44:13;;;;;;;1999.90;999.90;;;;;;;-151.59;100.00;55400.94;5018373;28;96899;-72
2022/02/19 00:46:42;;;;;;;1999.90;999.90;;;;;;;-151.59;100.00;55400.94;5017731;28;97343;-71
2022/02/19 00:49:12;;;;;;;1999.90;999.90;;;;;;;-151.59;100.00;55400.94;5016806;28;97993;-72
2022/02/19 00:51:41;;;;;;;1999.90;999.90;;;;;;;-151.59;100.00;55400.94;5016939;27;98930;-72
2022/02/19 00:54:08;;;;;;;1999.90;999.90;;;;;;;-151.59;100.00;55400.94;5018053;28;98095;-72
2022/02/19 00:56:36;;;;;;;1999.90;999.90;;;;;;;-151.59;100.00;55400.94;5002217;28;97194;-72
2022/02/19 00:59:06;;;;;;;1999.90;999.90;;;;;;;-151.59;100.00;55400.94;5018108;27;98936;-71
2022/02/19 01:01:34;;;;;;;1999.90;999.90;;;;;;;-151.59;100.00;55400.94;5016725;27;97371;-72
2022/02/19 01:04:07;;;;;;;1999.90;999.90;;;;;;;-151.59;100.00;55400.94;5016916;28;97732;-71
2022/02/19 01:06:35;;;;;;;1999.90;999.90;;;;;;;-151.59;100.00;55400.94;5016853;27;98179;-71
2022/02/19 01:09:05;;;;;;;1999.90;999.90;;;;;;;-151.59;100.00;55400.94;5017922;27;100225;-71
2022/02/19 01:11:33;;;;;;;1999.90;999.90;;;;;;;-151.59;100.00;55400.94;5016750;27;98827;-71
2022/02/19 01:14:01;;;;;;;1999.90;999.90;;;;;;;-151.59;100.00;55400.94;5002123;28;97040;-72
2022/02/19 01:16:30;;;;;;;1999.90;999.90;;;;;;;-151.59;100.00;55400.94;5030947;27;97711;-71
2022/02/19 01:18:58;;;;;;;1999.90;999.90;;;;;;;-151.59;100.00;55400.94;5000380;28;100429;-72
2022/02/19 01:21:25;;;;;;;1999.90;999.90;;;;;;;-151.59;100.00;55400.94;5016066;28;100391;-73
2022/02/19 01:23:53;;;;;;;1999.90;999.90;;;;;;;-151.59;100.00;55400.94;5034031;27;98353;-72
2022/02/19 01:26:21;;;;;;;1999.90;999.90;;;;;;;-151.59;100.00;55400.94;5016869;28;97321;-72
2022/02/19 01:28:53;;;;;;;1999.90;999.90;;;;;;;-151.59;100.00;55400.94;5000803;28;101247;-72
2022/02/19 01:31:25;;;;;;;1999.90;999.90;;;;;;;-151.59;100.00;55400.94;5033030;27;97519;-71
2022/02/19 01:33:55;;;;;;;1999.90;999.90;;;;;;;-151.59;100.00;55400.94;5018538;28;98890;-73
2022/02/19 01:36:22;;;;;;;1999.90;999.90;;;;;;;2.94;40.69;99233.81;4999921;28;97850;-72
2022/02/19 01:38:50;;;;;;;1999.90;999.90;;;;;;;2.98;40.57;99237.41;5015410;28;100978;-72
2022/02/19 01:41:18;;;;;;;1999.90;999.90;;;;;;;2.98;40.40;99233.03;4997452;28;99186;-71
2022/02/19 01:43:46;;;;;;;1999.90;999.90;;;;;;;3.01;39.92;99216.47;5015944;28;97861;-71
2022/02/19 01:46:15;;;;;;;1999.90;999.90;;;;;;;-151.59;100.00;55400.94;5015712;27;98700;-72
2022/02/19 01:48:45;;;;;;;1999.90;999.90;;;;;;;-151.59;100.00;55400.94;4998160;28;100905;-72
2022/02/19 01:51:21;;;;;;;1999.90;999.90;;;;;;;3.00;38.89;99264.63;5000377;28;99191;-70
2022/02/19 01:53:49;;;;;;;1999.90;999.90;;;;;;;2.98;38.94;99250.56;5017490;27;96784;-70
2022/02/19 01:56:24;;;;;;;1999.90;999.90;;;;;;;2.97;38.64;99341.59;4999931;28;97760;-69
2022/02/19 01:59:11;;;;;;;1999.90;999.90;;;;;;;3.28;38.28;99237.34;5030301;27;100001;-72
2022/02/19 02:01:59;;;;;;;1999.90;999.90;;;;;;;-151.59;100.00;55400.94;5012509;27;97744;-70
2022/02/19 02:04:37;;;;;;;1999.90;999.90;;;;;;;-151.59;100.00;55400.94;5011610;27;98585;-70
2022/02/19 02:07:06;;;;;;;1999.90;999.90;;;;;;;-151.59;100.00;55400.94;5014423;28;97629;-69
2022/02/19 02:09:36;;;;;;;1999.90;999.90;;;;;;;-151.59;100.00;55400.94;5016124;27;98810;-72
2022/02/19 02:12:07;;;;;;;1999.90;999.90;;;;;;;-151.59;100.00;55400.94;5012844;28;99551;-71
2022/02/19 02:14:42;;;;;;;1999.90;999.90;;;;;;;-151.59;100.00;55400.94;5011149;28;99284;-71
2022/02/19 02:17:19;;;;;;;1999.90;999.90;;;;;;;-151.59;100.00;55400.94;5008278;28;97080;-72
2022/02/19 02:19:47;;;;;;;1999.90;999.90;;;;;;;-151.59;100.00;55400.94;5014814;28;98149;-72
2022/02/19 02:22:18;;;;;;;1999.90;999.90;;;;;;;-151.59;100.00;55400.94;4996791;28;99866;-71
2022/02/19 02:24:47;;;;;;;1999.90;999.90;;;;;;;2.60;38.57;99323.00;5018663;27;97863;-69
2022/02/19 02:27:31;;;;;;;1999.90;999.90;;;;;;;2.46;39.00;99284.97;5000147;28;98941;-69
2022/02/19 02:29:59;;;;;;;1999.90;999.90;;;;;;;-151.59;100.00;55400.94;5016451;27;97648;-72
2022/02/19 02:32:35;;;;;;;1999.90;999.90;;;;;;;-151.59;100.00;55400.94;5015346;27;97123;-70
2022/02/19 02:35:04;;;;;;;1999.90;999.90;;;;;;;-151.59;100.00;55400.94;5000021;28;98602;-70
2022/02/19 02:37:38;;;;;;;1999.90;999.90;;;;;;;-151.59;100.00;55400.94;5000851;28;96907;-70
2022/02/19 02:40:09;;;;;;;1999.90;999.90;;;;;;;-151.59;100.00;55400.94;5031577;27;98383;-71
2022/02/19 02:42:37;;;;;;;1999.90;999.90;;;;;;;2.73;39.37;99301.50;5017047;27;100716;-72
2022/02/19 02:45:11;;;;;;;1999.90;999.90;;;;;;;2.52;39.28;99307.88;5035662;27;97988;-72
2022/02/19 02:47:59;;;;;;;1999.90;999.90;;;;;;;2.51;39.71;99303.47;5004863;28;98040;-71
2022/02/19 02:50:32;;;;;;;1999.90;999.90;;;;;;;2.41;39.46;99290.91;5005648;28;99415;-72
2022/02/19 02:53:24;;;;;;;1999.90;999.90;;;;;;;2.42;40.12;99298.81;5018339;27;99229;-73
2022/02/19 02:55:52;;;;;;;1999.90;999.90;;;;;;;2.44;40.07;99294.53;5018848;27;97509;-71
2022/02/19 02:58:20;;;;;;;1999.90;999.90;;;;;;;2.40;39.99;99320.66;5014922;28;97731;-71
2022/02/19 03:00:48;;;;;;;1999.90;999.90;;;;;;;2.42;40.13;99347.84;5027801;27;98601;-72
2022/02/19 03:03:17;;;;;;;1999.90;999.90;;;;;;;2.35;40.25;99343.22;5014808;28;100007;-72
2022/02/19 03:05:45;;;;;;;1999.90;999.90;;;;;;;2.22;41.06;99377.81;5011996;27;97521;-70
2022/02/19 03:08:15;;;;;;;1999.90;999.90;;;;;;;2.22;41.86;99381.31;4997105;28;97657;-70
2022/02/19 03:10:44;;;;;;;1999.90;999.90;;;;;;;2.18;41.77;99348.84;5016053;27;101176;-71
2022/02/19 03:13:12;;;;;;;1999.90;999.90;;;;;;;1.91;41.51;99376.78;5014017;27;100782;-71
2022/02/19 03:15:40;;;;;;;1999.90;999.90;;;;;;;2.00;42.61;99340.34;4995946;28;98025;-72
2022/02/19 03:18:08;;;;;;;1999.90;999.90;;;;;;;1.94;42.33;99399.59;5030950;27;98841;-72
2022/02/19 03:20:39;;;;;;;1999.90;999.90;;;;;;;1.88;42.21;99363.56;4998238;28;99854;-71
2022/02/19 03:23:07;;;;;;;1999.90;999.90;;;;;;;1.83;42.07;99408.84;5012763;27;100205;-71
2022/02/19 03:25:35;;;;;;;1999.90;999.90;;;;;;;-151.59;100.00;55400.94;5011176;28;97154;-72
2022/02/19 03:28:09;;;;;;;1999.90;999.90;;;;;;;-151.59;100.00;55400.94;5015727;27;99737;-71
2022/02/19 03:30:38;;;;;;;1999.90;999.90;;;;;;;-151.59;100.00;55400.94;4998129;28;101131;-71
2022/02/19 03:33:19;;;;;;;1999.90;999.90;;;;;;;-151.59;100.00;55400.94;5018191;27;99527;-72
2022/02/19 03:35:47;;;;;;;1999.90;999.90;;;;;;;-151.59;100.00;55400.94;5002329;28;98138;-71
2022/02/19 03:38:14;;;;;;;1999.90;999.90;;;;;;;-151.59;100.00;55400.94;5021279;27;96885;-72
2022/02/19 03:40:52;;;;;;;1999.90;999.90;;;;;;;1.93;42.29;99398.69;5018871;27;99137;-73
2022/02/19 03:43:22;;;;;;;1999.90;999.90;;;;;;;1.82;42.06;99444.66;4999844;28;99583;-71
2022/02/19 03:45:50;;;;;;;1999.90;999.90;;;;;;;1.81;42.03;99469.09;5010491;27;97459;-71
2022/02/19 03:48:38;;;;;;;1999.90;999.90;;;;;;;1.90;42.53;99419.59;5013528;28;99212;-71
2022/02/19 03:51:06;;;;;;;1999.90;999.90;;;;;;;1.90;42.56;99437.94;4996676;28;101119;-70
2022/02/19 03:53:34;;;;;;;1999.90;999.90;;;;;;;1.95;42.06;99440.72;4998209;28;100449;-71
2022/02/19 03:56:02;;;;;;;1999.90;999.90;;;;;;;1.88;41.00;99546.25;4994955;28;99338;-71
2022/02/19 03:58:34;;;;;;;1999.90;999.90;;;;;;;1.82;42.63;99444.66;5011661;27;99197;-70
2022/02/19 04:01:04;;;;;;;1999.90;999.90;;;;;;;1.81;41.98;99463.88;4994588;28;101267;-70
2022/02/19 04:03:33;;;;;;;1999.90;999.90;;;;;;;1.82;41.65;99455.13;5013161;27;101325;-72
2022/02/19 04:06:01;;;;;;;1999.90;999.90;;;;;;;1.91;42.11;99492.16;4997340;28;98487;-72
2022/02/19 04:08:30;;;;;;;1999.90;999.90;;;;;;;2.00;42.00;99482.00;5012563;28;97141;-71
2022/02/19 04:10:58;;;;;;;1999.90;999.90;;;;;;;1.92;41.47;99514.97;5010420;27;99442;-72
2022/02/19 04:13:26;;;;;;;1999.90;999.90;;;;;;;1.92;42.02;99545.53;4996399;28;100729;-72
2022/02/19 04:16:08;;;;;;;1999.90;999.90;;;;;;;1.93;42.02;99515.81;4998115;28;97548;-71
2022/02/19 04:18:39;;;;;;;1999.90;999.90;;;;;;;1.91;42.49;99513.16;5021720;27;97040;-72
2022/02/19 04:21:08;;;;;;;1999.90;999.90;;;;;;;1.85;42.18;99536.53;5016681;28;100499;-70
2022/02/19 04:23:38;;;;;;;1999.90;999.90;;;;;;;1.73;42.03;99567.56;5019029;28;97843;-71
2022/02/19 04:26:09;;;;;;;1999.90;999.90;;;;;;;1.70;42.65;99530.75;5021173;28;96882;-72
2022/02/19 04:28:47;;;;;;;1999.90;999.90;;;;;;;1.66;42.66;99556.78;5000082;28;99182;-73
2022/02/19 04:31:25;;;;;;;1999.90;999.90;;;;;;;1.52;42.79;99516.09;5002941;28;99580;-73
2022/02/19 04:34:04;;;;;;;1999.90;999.90;;;;;;;1.55;43.16;99548.53;5021494;27;100570;-73
2022/02/19 04:36:34;;;;;;;1999.90;999.90;;;;;;;1.48;43.03;99543.00;5022206;27;98276;-70
2022/02/19 04:39:02;;;;;;;1999.90;999.90;;;;;;;1.48;43.23;99540.38;5020071;28;98904;-72
2022/02/19 04:41:31;;;;;;;1999.90;999.90;;;;;;;1.42;43.29;99562.00;5019074;27;100462;-70
2022/02/19 04:43:59;;;;;;;1999.90;999.90;;;;;;;1.49;43.81;99553.53;5004488;27;99461;-72
2022/02/19 04:46:29;;;;;;;1999.90;999.90;;;;;;;1.44;44.01;99547.25;5019767;28;98615;-70
2022/02/19 04:48:58;;;;;;;1999.90;999.90;;;;;;;1.35;43.26;99591.44;5022491;27;96940;-71
2022/02/19 04:51:26;;;;;;;1999.90;999.90;;;;;;;1.36;43.69;99643.00;5005152;28;99328;-69
2022/02/19 04:53:55;;;;;;;1999.90;999.90;;;;;;;1.26;43.83;99569.22;5037873;27;98188;-71
2022/02/19 04:56:23;;;;;;;1999.90;999.90;;;;;;;1.24;43.77;99666.13;5017790;28;97164;-69
2022/02/19 04:58:52;;;;;;;1999.90;999.90;;;;;;;1.37;43.70;99599.38;5020098;28;97267;-69
2022/02/19 05:01:20;;;;;;;1999.90;999.90;;;;;;;1.35;43.45;99630.75;5019692;27;102500;-70
2022/02/19 05:04:05;;;;;;;1999.90;999.90;;;;;;;1.45;44.04;99613.66;5002235;28;99456;-70
2022/02/19 05:06:42;;;;;;;1999.90;999.90;;;;;;;1.39;43.75;99645.78;5017254;28;96922;-70
2022/02/19 05:09:11;;;;;;;1999.90;999.90;;;;;;;1.43;43.33;99631.06;5004147;28;97053;-70
2022/02/19 05:11:45;;;;;;;1999.90;999.90;;;;;;;1.42;43.00;99666.84;5003932;28;99302;-67
2022/02/19 05:14:14;;;;;;;1999.90;999.90;;;;;;;1.49;43.41;99632.19;5003095;28;101234;-69
2022/02/19 05:16:45;;;;;;;1999.90;999.90;;;;;;;1.50;43.11;99701.22;5002552;28;97602;-69
2022/02/19 05:19:15;;;;;;;1999.90;999.90;;;;;;;1.52;42.97;99674.25;5002896;28;96846;-70
2022/02/19 05:21:43;;;;;;;1999.90;999.90;;;;;;;1.57;43.65;99713.75;5021534;27;100578;-69
2022/02/19 05:24:15;;;;;;;1999.90;999.90;;;;;;;1.51;44.16;99693.41;5003323;28;99461;-70
2022/02/19 05:26:50;;;;;;;1999.90;999.90;;;;;;;1.59;43.95;99681.53;4999266;28;97116;-72
2022/02/19 05:29:23;;;;;;;1999.90;999.90;;;;;;;1.47;44.19;99681.00;5020026;28;98538;-70
2022/02/19 05:32:06;;;;;;;1999.90;999.90;;;;;;;1.37;44.96;99725.16;5005450;28;97639;-71
2022/02/19 05:34:55;;;;;;;1999.90;999.90;;;;;;;1.23;45.45;99734.19;5020257;28;96771;-71
2022/02/19 05:37:39;;;;;;;1999.90;999.90;;;;;;;1.14;45.34;99726.84;5020092;27;96988;-68
2022/02/19 05:40:22;;;;;;;1999.90;999.90;;;;;;;1.17;45.26;99753.16;5022327;28;98037;-72
2022/02/19 05:43:05;;;;;;;1999.90;999.90;;;;;;;1.08;45.16;99748.44;5033797;27;98058;-71
2022/02/19 05:45:49;;;;;;;1999.90;999.90;;;;;;;0.91;45.68;99821.84;5033130;27;97855;-73
2022/02/19 05:48:35;;;;;;;1999.90;999.90;;;;;;;1.02;45.26;99748.16;5019318;27;97767;-72
2022/02/19 05:51:26;;;;;;;1999.90;999.90;;;;;;;0.96;45.94;99784.56;5016773;27;98879;-72
2022/02/19 05:54:14;;;;;;;1999.90;999.90;;;;;;;0.98;45.62;99766.28;5014299;28;97960;-72
2022/02/19 05:57:03;;;;;;;1999.90;999.90;;;;;;;0.91;45.55;99759.91;5015164;27;98685;-71
2022/02/19 05:59:46;;;;;;;1999.90;999.90;;;;;;;0.92;45.81;99794.84;5014856;28;97034;-71
2022/02/19 06:02:29;;;;;;;1999.90;999.90;;;;;;;0.88;45.99;99787.69;5029753;27;98304;-70
2022/02/19 06:05:14;;;;;;;1999.90;999.90;;;;;;;0.98;45.29;99805.56;5012718;28;98667;-71
2022/02/19 06:08:02;;;;;;;1999.90;999.90;;;;;;;0.84;46.49;99880.03;5015746;28;98972;-71
2022/02/19 06:10:45;;;;;;;1999.90;999.90;;;;;;;0.87;46.08;99833.00;5030108;27;98664;-71
2022/02/19 06:13:33;;;;;;;1999.90;999.90;;;;;;;0.86;46.15;99904.56;5027294;27;97524;-71
2022/02/19 06:16:21;;;;;;;1999.90;999.90;;;;;;;0.83;46.54;99838.97;5027625;27;98980;-71
2022/02/19 06:19:23;;;;;;;1999.90;999.90;;;;;;;-151.59;100.00;55400.94;5011277;28;97425;-70
2022/02/19 06:22:11;;;;;;;1999.90;999.90;;;;;;;-151.59;100.00;55400.94;5014445;27;97725;-74
2022/02/19 06:25:00;;;;;;;1999.90;999.90;;;;;;;-151.59;100.00;55400.94;5012720;27;96999;-71
2022/02/19 06:27:29;;;;;;;1999.90;999.90;;;;;;;-151.59;100.00;55400.94;5012657;27;98688;-71
2022/02/19 06:30:05;;;;;;;1999.90;999.90;;;;;;;-151.59;100.00;55400.94;5023847;27;98732;-69
2022/02/19 06:32:45;;;;;;;1999.90;999.90;;;;;;;-151.59;100.00;55400.94;4994406;28;97382;-72
2022/02/19 06:35:14;;;;;;;1999.90;999.90;;;;;;;-151.59;100.00;55400.94;4988822;28;97355;-72
2022/02/19 06:37:44;;;;;;;1999.90;999.90;;;;;;;-151.59;100.00;55400.94;4993336;28;100601;-72
2022/02/19 06:40:14;;;;;;;1999.90;999.90;;;;;;;-151.59;100.00;55400.94;5009430;28;98854;-72
2022/02/19 06:42:44;;;;;;;1999.90;999.90;;;;;;;-151.59;100.00;55400.94;5011489;27;99117;-72
2022/02/19 06:45:20;;;;;;;1999.90;999.90;;;;;;;-151.59;100.00;55400.94;5007921;27;98512;-72
2022/02/19 06:47:49;;;;;;;1999.90;999.90;;;;;;;-151.59;100.00;55400.94;5012982;28;97777;-71
2022/02/19 06:50:23;;;;;;;1999.90;999.90;;;;;;;-151.59;100.00;55400.94;4992272;28;99577;-70
2022/02/19 06:52:52;;;;;;;1999.90;999.90;;;;;;;-151.59;100.00;55400.94;5011921;28;97512;-73
2022/02/19 06:55:23;;;;;;;1999.90;999.90;;;;;;;-151.59;100.00;55400.94;5011812;27;98046;-72
2022/02/19 06:57:51;;;;;;;1999.90;999.90;;;;;;;-151.59;100.00;55400.94;5013498;27;101299;-73
2022/02/19 07:00:21;;;;;;;1999.90;999.90;;;;;;;-151.59;100.00;55400.94;4999439;28;100571;-71
2022/02/19 07:02:55;;;;;;;1999.90;999.90;;;;;;;-151.59;100.00;55400.94;5015231;27;98681;-73
2022/02/19 07:05:25;;;;;;;1999.90;999.90;;;;;;;-151.59;100.00;55400.94;5014486;28;98019;-73
2022/02/19 07:08:12;;;;;;;1999.90;999.90;;;;;;;-151.59;100.00;55400.94;5009315;27;98852;-72
2022/02/19 07:10:41;;;;;;;1999.90;999.90;;;;;;;-151.59;100.00;55400.94;5016863;28;99373;-73
2022/02/19 07:13:10;;;;;;;1999.90;999.90;;;;;;;-151.59;100.00;55400.94;5017503;27;97124;-73
2022/02/19 07:15:38;;;;;;;1999.90;999.90;;;;;;;-151.59;100.00;55400.94;5001280;28;96950;-73
2022/02/19 07:18:13;;;;;;;1999.90;999.90;;;;;;;-151.59;100.00;55400.94;5001206;28;99496;-73
2022/02/19 07:21:04;;;;;;;1999.90;999.90;;;;;;;-151.59;100.00;55400.94;5007916;27;99214;-74
2022/02/19 07:23:32;;;;;;;1999.90;999.90;;;;;;;-151.59;100.00;55400.94;5034888;27;98729;-73
2022/02/19 07:26:01;;;;;;;1999.90;999.90;;;;;;;-151.59;100.00;55400.94;5019273;27;98365;-73
2022/02/19 07:28:34;;;;;;;1999.90;999.90;;;;;;;-151.59;100.00;55400.94;4999169;28;101336;-73
2022/02/19 07:31:02;;;;;;;1999.90;999.90;;;;;;;-151.59;100.00;55400.94;5018643;27;96967;-74
2022/02/19 07:33:30;;;;;;;1999.90;999.90;;;;;;;-151.59;100.00;55400.94;5018594;28;97367;-73
2022/02/19 07:36:01;;;;;;;1999.90;999.90;;;;;;;-151.59;100.00;55400.94;5002632;28;97601;-73
2022/02/19 07:38:31;;;;;;;1999.90;999.90;;;;;;;-151.59;100.00;55400.94;4995525;28;99442;-74
2022/02/19 07:41:00;;;;;;;1999.90;999.90;;;;;;;-151.59;100.00;55400.94;4999048;27;100822;-73
2022/02/19 07:43:51;;;;;;;1999.90;999.90;;;;;;;-151.59;100.00;55400.94;5016360;28;97652;-73
2022/02/19 07:46:39;;;;;;;1999.90;999.90;;;;;;;-151.59;100.00;55400.94;4977065;28;97965;-72
2022/02/19 07:58:29;;;;;;;1999.90;999.90;;;;;;;-151.59;100.00;55400.94;4999693;28;99117;-71
2022/02/19 08:01:00;;;;;;;1999.90;999.90;;;;;;;-151.59;100.00;55400.94;5033831;27;98308;-71
2022/02/19 08:03:36;;;;;;;1999.90;999.90;;;;;;;-151.59;100.00;55400.94;5015996;28;102039;-71
2022/02/19 08:06:06;;;;;;;1999.90;999.90;;;;;;;-151.59;100.00;55400.94;5015059;27;98123;-71
2022/02/19 08:08:37;;;;;;;1999.90;999.90;;;;;;;-151.59;100.00;55400.94;5016177;28;97442;-72
2022/02/19 08:11:13;;;;;;;1999.90;999.90;;;;;;;-151.59;100.00;55400.94;4998977;27;99391;-72
2022/02/19 08:13:42;;;;;;;1999.90;999.90;;;;;;;1.13;45.99;100170.41;5016799;28;98321;-71
2022/02/19 08:16:10;;;;;;;1999.90;999.90;;;;;;;1.15;46.33;100189.72;5017050;28;97325;-71
2022/02/19 08:18:39;;;;;;;1999.90;999.90;;;;;;;1.23;46.19;100164.81;5018362;27;97028;-71
2022/02/19 08:21:07;;;;;;;1999.90;999.90;;;;;;;1.25;45.93;100183.22;5016519;27;98229;-71
2022/02/19 08:23:35;;;;;;;1999.90;999.90;;;;;;;1.29;45.78;100200.88;5013736;27;98509;-72
2022/02/19 08:26:03;;;;;;;1999.90;999.90;;;;;;;1.40;45.04;100197.06;5002639;27;97911;-71
2022/02/19 08:28:31;;;;;;;1999.90;999.90;;;;;;;1.40;43.88;100200.56;4996943;27;99257;-72
2022/02/19 08:31:00;;;;;;;1999.90;999.90;;;;;;;1.49;44.17;100219.34;5001740;27;98468;-72
2022/02/19 08:33:28;;;;;;;1999.90;999.90;;;;;;;1.57;44.46;100204.91;5007676;27;97628;-71
2022/02/19 08:35:56;;;;;;;1999.90;999.90;;;;;;;1.68;44.52;100237.78;5005397;27;98049;-72
2022/02/19 08:38:24;;;;;;;1999.90;999.90;;;;;;;1.77;44.58;100225.09;5014301;27;98150;-72
2022/02/19 08:40:51;;;;;;;1999.90;999.90;;;;;;;1.78;43.73;100236.50;5020130;27;97711;-74
2022/02/19 08:43:19;;;;;;;1999.90;999.90;;;;;;;1.84;42.56;100255.13;5004090;28;99375;-71
2022/02/19 08:45:47;;;;;;;1999.90;999.90;;;;;;;1.93;43.53;100264.31;5021561;28;96746;-72
2022/02/19 08:48:16;;;;;;;1999.90;999.90;;;;;;;2.00;43.06;100250.66;5022546;28;96909;-73
2022/02/19 08:50:44;;;;;;;1999.90;999.90;;;;;;;1.99;43.62;100251.50;5015827;28;98750;-71
2022/02/19 08:53:13;;;;;;;1999.90;999.90;;;;;;;2.05;43.73;100285.00;5020206;27;98139;-70
2022/02/19 08:55:42;;;;;;;1999.90;999.90;;;;;;;2.12;43.63;100268.75;5018922;28;97196;-71
2022/02/19 08:58:13;;;;;;;1999.90;999.90;;;;;;;2.12;43.33;100269.66;5021112;28;98073;-71
2022/02/19 09:00:41;;;;;;;1999.90;999.90;;;;;;;2.03;42.25;100274.44;5026750;28;97623;-71
2022/02/19 09:03:09;;;;;;;1999.90;999.90;;;;;;;2.16;43.33;100305.69;5026109;27;97764;-71
2022/02/19 09:05:38;;;;;;;1999.90;999.90;;;;;;;2.10;42.68;100288.78;5027928;28;96812;-69
2022/02/19 09:08:08;;;;;;;1999.90;999.90;;;;;;;2.08;43.77;100293.91;5040046;27;97336;-70
2022/02/19 09:10:41;;;;;;;1999.90;999.90;;;;;;;2.08;43.06;100301.78;5054690;27;98286;-71
2022/02/19 09:13:10;;;;;;;1999.90;999.90;;;;;;;2.03;43.44;100358.41;5026471;27;96946;-69
2022/02/19 09:15:38;;;;;;;1999.90;999.90;;;;;;;2.09;43.88;100308.84;5009359;27;98313;-69
2022/02/19 09:18:07;;;;;;;1999.90;999.90;;;;;;;2.10;43.64;100328.13;5017866;28;98090;-68
2022/02/19 09:20:35;;;;;;;1999.90;999.90;;;;;;;2.09;43.58;100318.47;5021702;28;100324;-69
2022/02/19 09:23:04;;;;;;;1999.90;999.90;;;;;;;2.12;43.02;100343.13;5018145;28;98053;-71
2022/02/19 09:25:32;;;;;;;1999.90;999.90;;;;;;;2.13;43.51;100352.78;5029121;27;97285;-69
2022/02/19 09:28:00;;;;;;;1999.90;999.90;;;;;;;2.20;43.85;100377.59;5008876;28;98543;-71
2022/02/19 09:30:29;;;;;;;1999.90;999.90;;;;;;;2.24;43.93;100368.16;5006885;27;100097;-69
2022/02/19 09:32:59;;;;;;;1999.90;999.90;;;;;;;2.27;43.66;100398.09;5031155;27;98850;-70
2022/02/19 09:35:28;;;;;;;1999.90;999.90;;;;;;;2.24;42.87;100383.91;5018418;27;97150;-69
2022/02/19 09:37:56;;;;;;;1999.90;999.90;;;;;;;2.22;42.80;100378.56;5032119;27;97738;-70
2022/02/19 09:40:25;;;;;;;1999.90;999.90;;;;;;;2.25;43.34;100375.19;5013381;28;98853;-70
2022/02/19 09:42:53;;;;;;;1999.90;999.90;;;;;;;2.24;42.74;100399.66;5005216;27;97737;-69
2022/02/19 09:45:23;;;;;;;1999.90;999.90;;;;;;;2.27;42.97;100454.94;5015895;28;97284;-70
2022/02/19 09:47:53;;;;;;;1999.90;999.90;;;;;;;2.29;42.50;100403.41;5000554;28;97012;-70
2022/02/19 09:50:22;;;;;;;1999.90;999.90;;;;;;;2.29;42.42;100400.78;5017620;28;97790;-69
2022/02/19 09:52:50;;;;;;;1999.90;999.90;;;;;;;2.35;43.36;100403.69;5018731;27;98981;-69
2022/02/19 09:55:18;;;;;;;1999.90;999.90;;;;;;;2.38;42.43;100401.22;5013184;28;97346;-70
2022/02/19 09:57:47;;;;;;;1999.90;999.90;;;;;;;2.34;42.69;100417.66;5011641;28;98843;-69
2022/02/19 10:00:15;;;;;;;1999.90;999.90;;;;;;;2.37;42.99;100431.81;5008138;27;97562;-73
2022/02/19 10:02:43;;;;;;;1999.90;999.90;;;;;;;2.37;42.97;100408.19;5005481;28;99390;-71
2022/02/19 10:05:15;;;;;;;1999.90;999.90;;;;;;;2.39;42.17;100477.44;5011584;28;98112;-71
2022/02/19 10:07:46;;;;;;;1999.90;999.90;;;;;;;2.41;42.68;100440.72;5007534;28;98629;-70
2022/02/19 10:10:24;;;;;;;1999.90;999.90;;;;;;;2.39;41.23;100455.50;5022307;27;102164;-71
2022/02/19 10:12:54;;;;;;;1999.90;999.90;;;;;;;2.43;42.63;100454.84;5005750;28;98159;-70
2022/02/19 10:15:21;;;;;;;1999.90;999.90;;;;;;;2.47;42.42;100462.97;5007372;28;98222;-70
2022/02/19 10:17:51;;;;;;;1999.90;999.90;;;;;;;2.49;42.92;100465.66;5013124;28;97618;-69
2022/02/19 10:20:21;;;;;;;1999.90;999.90;;;;;;;2.46;42.20;100475.97;5010793;28;99835;-71
2022/02/19 10:22:52;;;;;;;1999.90;999.90;;;;;;;2.42;42.69;100485.44;5015269;27;99229;-73
2022/02/19 10:25:21;;;;;;;1999.90;999.90;;;;;;;2.43;42.26;100481.09;5018712;28;96950;-71
2022/02/19 10:27:54;;;;;;;1999.90;999.90;;;;;;;2.41;43.00;100501.13;5013666;28;97735;-72
2022/02/19 10:30:26;;;;;;;1999.90;999.90;;;;;;;2.38;42.03;100577.13;5017388;28;98119;-71
2022/02/19 10:32:57;;;;;;;1999.90;999.90;;;;;;;2.42;42.62;100489.81;5018111;27;99386;-71
2022/02/19 10:35:29;;;;;;;1999.90;999.90;;;;;;;2.27;40.73;100568.72;5021197;28;99042;-71
2022/02/19 10:37:58;;;;;;;1999.90;999.90;;;;;;;2.35;42.77;100542.81;5016981;28;98822;-71
2022/02/19 10:40:35;;;;;;;1999.90;999.90;;;;;;;2.41;41.82;100519.50;5010727;28;100375;-72
2022/02/19 10:43:05;;;;;;;1999.90;999.90;;;;;;;2.42;42.61;100526.56;5011018;28;99924;-72
2022/02/19 10:45:36;;;;;;;1999.90;999.90;;;;;;;2.46;42.09;100515.38;5012064;28;96919;-73
2022/02/19 10:48:18;;;;;;;1999.90;999.90;;;;;;;2.41;40.04;100530.00;5013588;28;97144;-72
2022/02/19 10:50:48;;;;;;;1999.90;999.90;;;;;;;2.43;42.38;100536.25;5018690;28;101356;-73
2022/02/19 10:53:26;;;;;;;1999.90;999.90;;;;;;;2.45;40.57;100531.97;5014568;27;97685;-74
2022/02/19 10:56:10;;;;;;;1999.90;999.90;;;;;;;2.30;39.77;100539.97;5013939;27;97888;-73
2022/02/19 10:58:38;;;;;;;1999.90;999.90;;;;;;;2.43;41.92;100646.53;5017448;27;97286;-72
2022/02/19 11:01:20;;;;;;;1999.90;999.90;;;;;;;2.37;39.10;100596.31;5013976;28;99073;-72
2022/02/19 11:03:51;;;;;;;1999.90;999.90;;;;;;;2.38;41.12;100574.50;5029954;27;100186;-72
2022/02/19 11:06:20;;;;;;;1999.90;999.90;;;;;;;2.43;42.08;100557.25;5010472;28;100221;-72
2022/02/19 11:08:48;;;;;;;1999.90;999.90;;;;;;;2.48;41.78;100540.91;4989795;28;97430;-71
2022/02/19 11:11:16;;;;;;;1999.90;999.90;;;;;;;2.50;41.70;100560.25;5009730;28;97588;-72
2022/02/19 11:13:44;;;;;;;1999.90;999.90;;;;;;;2.57;42.06;100546.59;5016071;27;99291;-72
2022/02/19 11:16:12;;;;;;;1999.90;999.90;;;;;;;2.62;41.82;100576.59;4996173;28;98592;-71
2022/02/19 11:18:44;;;;;;;1999.90;999.90;;;;;;;2.66;42.04;100565.44;5014332;28;99932;-71